createdAt,value
2019-06-10T00:02:07.313Z,100708.13
2019-06-10T00:04:37.352Z,100703.79
2019-06-10T00:07:07.465Z,100696.93
2019-06-10T00:09:37.416Z,100696.00
2019-06-10T00:12:08.175Z,100686.06
2019-06-10T00:14:38.877Z,100679.97
2019-06-10T00:17:10.807Z,100677.45
2019-06-10T00:19:40.937Z,100671.44
2019-06-10T00:22:11.841Z,100673.28
2019-06-10T00:24:41.781Z,100671.59
2019-06-10T00:27:12.138Z,100672.29
2019-06-10T00:29:42.081Z,100668.43
2019-06-10T00:32:13.141Z,100669.88
2019-06-10T00:34:43.440Z,100658.72
2019-06-10T00:37:14.531Z,100650.14
2019-06-10T00:39:44.779Z,100649.63
2019-06-10T00:42:15.301Z,100643.13
2019-06-10T00:44:45.319Z,100637.48
2019-06-10T00:47:15.622Z,100633.14
2019-06-10T00:49:45.535Z,100635.31
2019-06-10T00:52:15.410Z,100627.61
2019-06-10T00:54:45.304Z,100624.56
2019-06-10T00:57:15.206Z,100628.50
2019-06-10T00:59:45.007Z,100614.86
2019-06-10T01:02:15.085Z,100616.87
2019-06-10T01:04:46.030Z,100617.27
2019-06-10T01:07:15.971Z,100619.70
2019-06-10T01:09:45.786Z,100620.60
2019-06-10T01:12:15.579Z,100622.92
2019-06-10T01:14:45.493Z,100615.98
2019-06-10T01:17:15.666Z,100609.86
2019-06-10T01:19:45.692Z,100613.22
2019-06-10T01:22:16.983Z,100611.11
2019-06-10T01:24:47.174Z,100606.11
2019-06-10T01:27:18.020Z,100602.46
2019-06-10T01:29:47.955Z,100597.61
2019-06-10T01:32:17.886Z,100590.23
2019-06-10T01:34:47.682Z,100594.09
2019-06-10T01:37:17.762Z,100591.23
2019-06-10T01:39:47.814Z,100591.09
2019-06-10T01:42:17.732Z,100595.68
2019-06-10T01:44:47.646Z,100589.53
2019-06-10T01:47:17.737Z,100586.52
2019-06-10T01:49:47.519Z,100577.39
2019-06-10T01:52:18.363Z,100571.43
2019-06-10T01:54:48.433Z,100568.59
2019-06-10T01:57:18.750Z,100569.28
2019-06-10T01:59:50.921Z,100568.68
2019-06-10T02:02:23.940Z,100564.14
2019-06-10T02:04:54.137Z,100567.88
2019-06-10T02:07:24.102Z,100569.18
2019-06-10T02:09:53.871Z,100561.44
2019-06-10T02:12:24.409Z,100554.80
2019-06-10T02:14:54.301Z,100555.15
2019-06-10T02:17:24.332Z,100547.34
2019-06-10T02:19:54.139Z,100538.87
2019-06-10T02:22:24.539Z,100538.53
2019-06-10T02:24:54.532Z,100523.94
2019-06-10T02:27:24.341Z,100520.28
2019-06-10T02:29:54.216Z,100514.09
2019-06-10T02:32:31.930Z,100513.76
2019-06-10T02:35:07.993Z,100513.16
2019-06-10T02:37:32.794Z,100501.00
2019-06-10T02:39:58.548Z,100504.05
2019-06-10T02:42:36.019Z,100507.27
2019-06-10T02:45:06.619Z,100498.58
2019-06-10T02:47:37.808Z,100495.60
2019-06-10T02:50:09.801Z,100492.55
2019-06-10T02:52:39.746Z,100489.58
2019-06-10T02:55:14.063Z,100482.88
2019-06-10T02:57:44.926Z,100485.43
2019-06-10T03:00:20.628Z,100483.64
2019-06-10T03:02:45.559Z,100489.44
2019-06-10T03:05:17.594Z,100492.20
2019-06-10T03:07:47.134Z,100488.03
2019-06-10T03:10:19.518Z,100500.51
2019-06-10T03:12:48.866Z,100498.69
2019-06-10T03:15:19.964Z,100488.77
2019-06-10T03:17:52.015Z,100487.27
2019-06-10T03:20:24.314Z,100493.06
2019-06-10T03:22:52.981Z,100485.16
2019-06-10T03:25:24.551Z,100495.61
2019-06-10T03:27:54.429Z,100491.91
2019-06-10T03:30:37.406Z,100489.88
2019-06-10T03:32:55.873Z,100491.84
2019-06-10T03:35:26.951Z,100490.32
2019-06-10T03:37:57.279Z,100483.83
2019-06-10T03:40:27.743Z,100482.56
2019-06-10T03:42:57.664Z,100485.91
2019-06-10T03:45:28.555Z,100473.84
2019-06-10T03:47:58.455Z,100474.14
2019-06-10T03:50:28.760Z,100479.58
2019-06-10T03:53:01.014Z,100482.05
2019-06-10T03:55:32.898Z,100475.97
2019-06-10T03:58:02.307Z,100474.30
2019-06-10T04:00:32.702Z,100478.65
2019-06-10T04:03:02.897Z,100475.23
2019-06-10T04:05:33.232Z,100464.62
2019-06-10T04:08:02.979Z,100466.23
2019-06-10T04:10:33.066Z,100462.34
2019-06-10T04:13:02.956Z,100458.05
2019-06-10T04:15:33.052Z,100460.70
2019-06-10T04:18:03.903Z,100456.01
2019-06-10T04:20:33.998Z,100458.72
2019-06-10T04:23:03.791Z,100456.84
2019-06-10T04:25:33.661Z,100454.31
2019-06-10T04:28:03.554Z,100455.73
2019-06-10T04:30:33.338Z,100461.02
2019-06-10T04:33:03.136Z,100458.64
2019-06-10T04:35:33.662Z,100464.09
2019-06-10T04:38:03.680Z,100454.42
2019-06-10T04:40:33.584Z,100464.03
2019-06-10T04:43:03.478Z,100460.54
2019-06-10T04:45:33.367Z,100462.78
2019-06-10T04:48:03.208Z,100459.95
2019-06-10T04:50:42.299Z,100462.33
2019-06-10T04:53:04.851Z,100462.27
2019-06-10T04:55:34.747Z,100447.11
2019-06-10T04:58:04.548Z,100442.09
2019-06-10T05:00:34.342Z,100436.86
2019-06-10T05:03:04.241Z,100441.24
2019-06-10T05:05:34.134Z,100441.86
2019-06-10T05:08:04.037Z,100439.95
2019-06-10T05:10:33.814Z,100435.33
2019-06-10T05:13:03.718Z,100434.39
2019-06-10T05:15:34.882Z,100433.94
2019-06-10T05:18:04.966Z,100436.79
2019-06-10T05:20:51.064Z,100444.56
2019-06-10T05:23:06.255Z,100447.41
2019-06-10T05:25:36.044Z,100439.31
2019-06-10T05:28:05.864Z,100442.09
2019-06-10T05:30:35.680Z,100443.09
2019-06-10T05:33:05.467Z,100447.65
2019-06-10T05:35:35.278Z,100443.63
2019-06-10T05:38:05.051Z,100439.86
2019-06-10T05:40:34.852Z,100442.80
2019-06-10T05:43:04.717Z,100442.72
2019-06-10T05:45:35.274Z,100440.33
2019-06-10T05:48:05.153Z,100438.78
2019-06-10T05:50:35.147Z,100440.25
2019-06-10T05:53:05.073Z,100438.41
2019-06-10T05:55:35.374Z,100432.19
2019-06-10T05:58:05.197Z,100429.41
2019-06-10T06:00:35.634Z,100426.25
2019-06-10T06:03:05.503Z,100436.97
2019-06-10T06:05:37.591Z,100430.33
2019-06-10T06:08:08.883Z,100434.04
2019-06-10T06:10:38.297Z,100429.06
2019-06-10T06:13:08.072Z,100424.33
2019-06-10T06:15:38.155Z,100426.41
2019-06-10T06:18:10.719Z,100423.14
2019-06-10T06:20:39.516Z,100413.13
2019-06-10T06:23:09.388Z,100414.56
2019-06-10T06:25:43.189Z,100415.83
2019-06-10T06:28:12.890Z,100417.12
2019-06-10T06:30:42.408Z,100414.25
2019-06-10T06:33:13.540Z,100421.19
2019-06-10T06:35:46.491Z,100420.53
2019-06-10T06:38:15.195Z,100426.63
2019-06-10T06:40:44.976Z,100420.63
2019-06-10T06:43:14.773Z,100427.05
2019-06-10T06:45:44.678Z,100430.05
2019-06-10T06:48:14.472Z,100423.47
2019-06-10T06:51:00.262Z,100419.08
2019-06-10T06:53:25.593Z,100419.86
2019-06-10T06:55:47.255Z,100424.61
2019-06-10T06:58:17.050Z,100420.59
2019-06-10T07:01:00.715Z,100423.36
2019-06-10T07:03:18.335Z,100425.84
2019-06-10T07:05:48.234Z,100424.50
2019-06-10T07:08:18.180Z,100418.65
2019-06-10T07:10:47.981Z,100415.57
2019-06-10T07:13:17.740Z,100422.40
2019-06-10T07:15:47.933Z,100416.19
2019-06-10T07:18:17.756Z,100415.83
2019-06-10T07:20:47.544Z,100415.23
2019-06-10T07:23:17.333Z,100422.16
2019-06-10T07:25:47.803Z,100422.72
2019-06-10T07:28:17.664Z,100416.66
2019-06-10T07:30:52.820Z,100413.34
2019-06-10T07:33:18.959Z,100416.86
2019-06-10T07:35:48.760Z,100404.59
2019-06-10T07:38:18.573Z,100406.60
2019-06-10T07:40:48.349Z,100408.89
2019-06-10T07:43:18.147Z,100400.23
2019-06-10T07:45:48.272Z,100402.73
2019-06-10T07:48:18.010Z,100400.81
2019-06-10T07:50:47.795Z,100395.97
2019-06-10T07:53:17.586Z,100397.94
2019-06-10T07:55:47.369Z,100393.41
2019-06-10T07:58:17.156Z,100390.56
2019-06-10T08:00:48.518Z,100399.56
2019-06-10T08:03:18.427Z,100403.37
2019-06-10T08:05:48.210Z,100406.89
2019-06-10T08:08:18.024Z,100403.14
2019-06-10T08:10:48.247Z,100398.94
2019-06-10T08:13:18.099Z,100389.02
2019-06-10T08:15:48.424Z,100381.35
2019-06-10T08:18:18.267Z,100382.47
2019-06-10T08:20:48.090Z,100377.93
2019-06-10T08:23:20.251Z,100375.72
2019-06-10T08:25:56.454Z,100381.27
2019-06-10T08:28:23.042Z,100377.09
2019-06-10T08:30:53.476Z,100382.88
2019-06-10T08:33:23.279Z,100376.97
2019-06-10T08:35:59.524Z,100375.23
2019-06-10T08:38:24.652Z,100368.03
2019-06-10T08:40:54.468Z,100364.71
2019-06-10T08:43:24.268Z,100367.64
2019-06-10T08:45:54.050Z,100365.53
2019-06-10T08:48:23.840Z,100365.80
2019-06-10T08:50:54.096Z,100351.73
2019-06-10T08:53:24.271Z,100361.53
2019-06-10T08:55:54.093Z,100358.25
2019-06-10T08:58:23.892Z,100347.45
2019-06-10T09:00:54.033Z,100341.49
2019-06-10T09:03:23.855Z,100348.91
2019-06-10T09:05:57.682Z,100342.41
2019-06-10T09:08:25.919Z,100344.36
2019-06-10T09:10:55.823Z,100340.92
2019-06-10T09:13:25.644Z,100332.55
2019-06-10T09:16:11.747Z,100333.70
2019-06-10T09:18:27.587Z,100342.39
2019-06-10T09:20:57.485Z,100345.19
2019-06-10T09:23:27.371Z,100339.75
2019-06-10T09:25:58.975Z,100341.98
2019-06-10T09:28:28.831Z,100332.88
2019-06-10T09:30:59.756Z,100335.84
2019-06-10T09:33:29.802Z,100330.41
2019-06-10T09:35:59.598Z,100332.83
2019-06-10T09:38:29.408Z,100329.11
2019-06-10T09:41:04.935Z,100334.20
2019-06-10T09:43:33.359Z,100331.11
2019-06-10T09:46:03.590Z,100334.99
2019-06-10T09:48:33.986Z,100335.69
2019-06-10T09:51:03.843Z,100338.05
2019-06-10T09:53:42.235Z,100329.33
2019-06-10T09:56:05.118Z,100327.17
2019-06-10T09:58:34.932Z,100331.04
2019-06-10T10:01:06.770Z,100327.84
2019-06-10T10:03:36.566Z,100313.41
2019-06-10T10:06:14.660Z,100322.84
2019-06-10T10:08:38.813Z,100322.10
2019-06-10T10:11:08.611Z,100325.77
2019-06-10T10:13:38.508Z,100314.69
2019-06-10T10:16:08.387Z,100316.58
2019-06-10T10:18:38.273Z,100310.83
2019-06-10T10:21:08.089Z,100301.00
2019-06-10T10:23:52.465Z,100302.69
2019-06-10T10:26:09.485Z,100298.88
2019-06-10T10:28:39.384Z,100290.23
2019-06-10T10:31:09.183Z,100297.64
2019-06-10T10:33:38.983Z,100289.72
2019-06-10T10:36:08.773Z,100286.82
2019-06-10T10:38:38.658Z,100286.36
2019-06-10T10:41:08.637Z,100285.91
2019-06-10T10:43:38.421Z,100276.41
2019-06-10T10:46:08.323Z,100282.27
2019-06-10T10:48:38.240Z,100283.47
2019-06-10T10:51:08.112Z,100283.19
2019-06-10T10:53:37.914Z,100276.47
2019-06-10T10:56:07.706Z,100279.02
2019-06-10T10:58:37.505Z,100273.23
2019-06-10T11:01:07.307Z,100271.70
2019-06-10T11:03:37.321Z,100265.84
2019-06-10T11:06:07.170Z,100268.13
2019-06-10T11:08:36.970Z,100268.35
2019-06-10T11:11:07.401Z,100261.06
2019-06-10T11:13:38.037Z,100263.03
2019-06-10T11:16:07.831Z,100259.45
2019-06-10T11:18:37.700Z,100254.45
2019-06-10T11:21:07.688Z,100240.19
2019-06-10T11:23:37.460Z,100241.53
2019-06-10T11:26:07.339Z,100224.46
2019-06-10T11:28:37.236Z,100232.02
2019-06-10T11:31:07.022Z,100231.25
2019-06-10T11:33:36.826Z,100230.99
2019-06-10T11:36:06.604Z,100221.48
2019-06-10T11:38:36.526Z,100215.05
2019-06-10T11:41:06.442Z,100213.88
2019-06-10T11:43:36.314Z,100217.81
2019-06-10T11:46:07.732Z,100216.16
2019-06-10T11:48:38.027Z,100213.64
2019-06-10T11:51:07.785Z,100204.41
2019-06-10T11:53:37.571Z,100207.48
2019-06-10T11:56:07.447Z,100201.05
2019-06-10T11:58:37.249Z,100194.89
2019-06-10T12:01:07.045Z,100202.72
2019-06-10T12:03:36.839Z,100198.75
2019-06-10T12:06:06.686Z,100197.11
2019-06-10T12:08:36.585Z,100185.09
2019-06-10T12:11:06.354Z,100191.78
2019-06-10T12:13:36.246Z,100190.93
2019-06-10T12:16:50.804Z,100190.91
2019-06-10T12:18:37.636Z,100185.55
2019-06-10T12:21:07.437Z,100193.17
2019-06-10T12:23:37.316Z,100188.58
2019-06-10T12:26:07.181Z,100182.20
2019-06-10T12:28:36.972Z,100171.91
2019-06-10T12:31:07.615Z,100170.48
2019-06-10T12:33:37.587Z,100162.08
2019-06-10T12:36:07.754Z,100162.11
2019-06-10T12:38:37.542Z,100153.38
2019-06-10T12:41:10.157Z,100149.41
2019-06-10T12:43:38.830Z,100148.76
2019-06-10T12:46:08.686Z,100144.59
2019-06-10T12:48:38.487Z,100135.31
2019-06-10T12:51:09.738Z,100124.91
2019-06-10T12:53:39.636Z,100127.16
2019-06-10T12:56:11.260Z,100124.36
2019-06-10T12:58:43.278Z,100130.41
2019-06-10T13:01:12.468Z,100131.83
2019-06-10T13:03:43.566Z,100134.38
2019-06-10T13:06:15.521Z,100127.42
2019-06-10T13:08:47.097Z,100132.73
2019-06-10T13:11:16.874Z,100127.09
2019-06-10T13:13:46.772Z,100126.20
2019-06-10T13:16:16.927Z,100127.42
2019-06-10T13:18:46.907Z,100123.56
2019-06-10T13:21:17.921Z,100120.55
2019-06-10T13:23:47.756Z,100118.88
2019-06-10T13:26:17.969Z,100112.06
2019-06-10T13:28:47.838Z,100112.05
2019-06-10T13:31:18.319Z,100103.59
2019-06-10T13:33:48.214Z,100099.38
2019-06-10T13:36:18.009Z,100098.92
2019-06-10T13:38:47.799Z,100096.20
2019-06-10T13:41:17.682Z,100095.64
2019-06-10T13:43:47.577Z,100099.00
2019-06-10T13:46:17.376Z,100100.09
2019-06-10T13:48:47.169Z,100092.48
2019-06-10T13:51:17.203Z,100093.30
2019-06-10T13:53:47.012Z,100090.45
2019-06-10T13:56:38.399Z,100082.14
2019-06-10T13:58:48.305Z,100084.42
2019-06-10T14:01:21.894Z,100077.37
2019-06-10T14:03:49.606Z,100080.75
2019-06-10T14:06:37.127Z,100074.09
2019-06-10T14:08:54.546Z,100071.03
2019-06-10T14:11:27.942Z,100081.97
2019-06-10T14:13:54.138Z,100078.63
2019-06-10T14:16:24.154Z,100080.84
2019-06-10T14:18:54.364Z,100070.72
2019-06-10T14:21:24.159Z,100063.36
2019-06-10T14:23:53.949Z,100068.70
2019-06-10T14:26:36.868Z,100068.75
2019-06-10T14:28:55.203Z,100062.62
2019-06-10T14:31:39.190Z,100060.59
2019-06-10T14:33:56.476Z,100066.83
2019-06-10T14:36:26.269Z,100059.82
2019-06-10T14:38:56.068Z,100055.31
2019-06-10T14:41:26.203Z,100054.47
2019-06-10T14:43:56.015Z,100050.32
2019-06-10T14:46:25.803Z,100048.62
2019-06-10T14:48:55.583Z,100049.75
2019-06-10T14:51:25.379Z,100053.42
2019-06-10T14:53:55.192Z,100058.52
2019-06-10T14:56:24.992Z,100052.59
2019-06-10T14:58:54.781Z,100055.36
2019-06-10T15:01:25.884Z,100054.13
2019-06-10T15:03:55.823Z,100058.95
2019-06-10T15:06:25.627Z,100057.18
2019-06-10T15:08:55.447Z,100053.44
2019-06-10T15:11:27.685Z,100061.08
2019-06-10T15:13:56.755Z,100059.56
2019-06-10T15:16:26.548Z,100055.62
2019-06-10T15:19:10.975Z,100057.84
2019-06-10T15:21:27.902Z,100057.30
2019-06-10T15:23:57.698Z,100050.58
2019-06-10T15:26:27.465Z,100043.58
2019-06-10T15:28:57.509Z,100043.05
2019-06-10T15:31:27.295Z,100035.75
2019-06-10T15:33:57.090Z,100028.64
2019-06-10T15:36:26.895Z,100026.48
2019-06-10T15:38:56.689Z,100021.42
2019-06-10T15:41:26.472Z,100019.08
2019-06-10T15:43:56.266Z,100019.97
2019-06-10T15:46:26.072Z,100010.27
2019-06-10T15:48:55.863Z,100009.45
2019-06-10T15:51:26.250Z,100002.70
2019-06-10T15:53:56.110Z,99999.07
2019-06-10T15:56:38.748Z,99994.61
2019-06-10T15:58:57.406Z,99991.75
2019-06-10T16:01:27.603Z,99987.00
2019-06-10T16:03:57.479Z,99992.89
2019-06-10T16:06:27.259Z,99989.81
2019-06-10T16:08:57.125Z,99992.02
2019-06-10T16:11:27.361Z,99987.73
2019-06-10T16:13:57.243Z,99991.00
2019-06-10T16:16:27.028Z,99986.28
2019-06-10T16:18:56.804Z,99986.55
2019-06-10T16:21:26.623Z,99990.42
2019-06-10T16:23:56.422Z,99986.27
2019-06-10T16:26:26.981Z,99996.73
2019-06-10T16:28:56.900Z,99996.47
2019-06-10T16:31:27.556Z,99995.69
2019-06-10T16:33:57.460Z,99998.22
2019-06-10T16:36:27.986Z,99996.78
2019-06-10T16:38:57.981Z,100014.98
2019-06-10T16:41:28.232Z,100012.98
2019-06-10T16:43:58.057Z,100023.05
2019-06-10T16:46:29.120Z,100022.18
2019-06-10T16:48:58.924Z,100019.39
2019-06-10T16:51:29.889Z,100015.48
2019-06-10T16:53:59.699Z,100024.70
2019-06-10T16:56:30.953Z,100022.73
2019-06-10T16:59:02.943Z,100025.55
2019-06-10T17:01:33.285Z,100022.47
2019-06-10T17:04:03.144Z,100014.63
2019-06-10T17:06:32.931Z,100015.48
2019-06-10T17:09:02.978Z,100016.89
2019-06-10T17:11:32.713Z,100015.19
2019-06-10T17:14:03.129Z,100012.98
2019-06-10T17:16:33.164Z,100012.96
2019-06-10T17:19:02.987Z,100013.55
2019-06-10T17:21:34.754Z,100011.30
2019-06-10T17:24:04.345Z,100015.19
2019-06-10T17:26:37.841Z,100022.46
2019-06-10T17:29:05.798Z,100032.28
2019-06-10T17:31:35.583Z,100029.75
2019-06-10T17:34:05.388Z,100026.39
2019-06-10T17:36:35.578Z,100031.72
2019-06-10T17:39:08.636Z,100041.77
2019-06-10T17:41:38.716Z,100035.60
2019-06-10T17:44:08.492Z,100043.41
2019-06-10T17:46:38.332Z,100041.94
2019-06-10T17:49:08.130Z,100035.79
2019-06-10T17:51:38.079Z,100030.75
2019-06-10T17:54:07.864Z,100028.53
2019-06-10T17:56:37.742Z,100027.94
2019-06-10T17:59:07.547Z,100025.41
2019-06-10T18:01:37.374Z,100028.22
2019-06-10T18:04:07.262Z,100021.55
2019-06-10T18:06:37.063Z,100016.78
2019-06-10T18:09:07.538Z,100018.97
2019-06-10T18:11:37.421Z,100016.16
2019-06-10T18:14:07.227Z,100013.62
2019-06-10T18:16:37.021Z,100017.52
2019-06-10T18:19:06.818Z,100012.41
2019-06-10T18:21:36.726Z,100018.20
2019-06-10T18:24:08.364Z,100026.64
2019-06-10T18:26:38.183Z,100031.52
2019-06-10T18:29:09.377Z,100033.22
2019-06-10T18:31:39.419Z,100038.10
2019-06-10T18:34:09.263Z,100050.35
2019-06-10T18:36:39.227Z,100053.32
2019-06-10T18:39:09.089Z,100063.28
2019-06-10T18:41:40.064Z,100061.03
2019-06-10T18:44:19.827Z,100069.22
2019-06-10T18:46:43.379Z,100063.22
2019-06-10T18:49:13.567Z,100072.91
2019-06-10T18:51:43.709Z,100072.86
2019-06-10T18:54:13.745Z,100057.91
2019-06-10T18:56:43.526Z,100056.52
2019-06-10T18:59:19.567Z,100060.87
2019-06-10T19:01:44.928Z,100058.45
2019-06-10T19:04:14.723Z,100053.13
2019-06-10T19:06:44.518Z,100041.27
2019-06-10T19:09:14.313Z,100036.06
2019-06-10T19:11:44.183Z,100039.05
2019-06-10T19:14:13.993Z,100038.21
2019-06-10T19:16:43.788Z,100032.92
2019-06-10T19:19:13.583Z,100032.92
2019-06-10T19:21:44.029Z,100030.09
2019-06-10T19:24:14.089Z,100028.82
2019-06-10T19:26:45.119Z,100028.42
2019-06-10T19:29:30.003Z,100017.25
2019-06-10T19:31:46.631Z,100015.98
2019-06-10T19:34:16.380Z,100019.13
2019-06-10T19:36:46.204Z,100027.59
2019-06-10T19:39:16.213Z,100033.27
2019-06-10T19:41:47.504Z,100040.75
2019-06-10T19:44:17.583Z,100046.92
2019-06-10T19:46:47.480Z,100054.95
2019-06-10T19:49:17.277Z,100052.30
2019-06-10T19:51:47.310Z,100047.60
2019-06-10T19:54:17.100Z,100044.02
2019-06-10T19:56:46.884Z,100024.52
2019-06-10T19:59:16.775Z,100038.41
2019-06-10T20:01:48.604Z,100052.17
2019-06-10T20:04:18.478Z,100070.14
2019-06-10T20:06:50.632Z,100053.11
2019-06-10T20:09:19.734Z,100056.45
2019-06-10T20:11:49.609Z,100073.30
2019-06-10T20:14:19.522Z,100076.73
2019-06-10T20:16:49.323Z,100089.49
2019-06-10T20:19:19.154Z,100105.08
2019-06-10T20:21:49.182Z,100118.48
2019-06-10T20:24:19.004Z,100109.14
2019-06-10T20:26:48.883Z,100115.55
2019-06-10T20:29:18.766Z,100115.02
2019-06-10T20:31:49.024Z,100120.91
2019-06-10T20:34:19.678Z,100119.13
2019-06-10T20:36:50.277Z,100118.17
2019-06-10T20:39:24.369Z,100118.05
2019-06-10T20:41:54.993Z,100117.86
2019-06-10T20:44:23.093Z,100116.81
2019-06-10T20:46:53.099Z,100118.72
2019-06-10T20:49:23.058Z,100118.14
2019-06-10T20:52:06.530Z,100112.47
2019-06-10T20:54:24.429Z,100111.95
2019-06-10T20:56:54.329Z,100108.64
2019-06-10T20:59:25.951Z,100100.33
2019-06-10T21:01:55.797Z,100092.45
2019-06-10T21:04:25.591Z,100090.39
2019-06-10T21:06:56.933Z,100091.06
2019-06-10T21:09:27.769Z,100093.77
2019-06-10T21:11:57.583Z,100089.22
2019-06-10T21:14:27.371Z,100090.73
2019-06-10T21:16:57.277Z,100097.59
2019-06-10T21:19:27.171Z,100087.22
2019-06-10T21:21:57.080Z,100086.17
2019-06-10T21:24:26.947Z,100075.33
2019-06-10T21:26:56.764Z,100089.75
2019-06-10T21:29:26.577Z,100088.30
2019-06-10T21:31:56.367Z,100097.03
2019-06-10T21:34:26.176Z,100100.80
2019-06-10T21:36:56.073Z,100108.92
2019-06-10T21:39:26.004Z,100102.95
2019-06-10T21:41:55.903Z,100106.84
2019-06-10T21:44:25.784Z,100109.41
2019-06-10T21:46:55.572Z,100126.06
2019-06-10T21:49:25.377Z,100135.72
2019-06-10T21:51:57.102Z,100128.84
2019-06-10T21:54:26.665Z,100132.59
2019-06-10T21:56:56.568Z,100128.55
2019-06-10T21:59:26.342Z,100127.73
2019-06-10T22:01:56.287Z,100116.34
2019-06-10T22:04:26.084Z,100109.20
2019-06-10T22:06:56.389Z,100128.41
2019-06-10T22:09:26.369Z,100120.02
2019-06-10T22:11:56.262Z,100110.18
2019-06-10T22:14:26.048Z,100100.09
2019-06-10T22:16:56.518Z,100114.13
2019-06-10T22:19:26.405Z,100110.88
2019-06-10T22:21:56.834Z,100111.75
2019-06-10T22:24:26.751Z,100100.14
2019-06-10T22:26:56.574Z,100096.35
2019-06-10T22:29:26.397Z,100097.52
2019-06-10T22:31:57.279Z,100100.92
2019-06-10T22:34:27.257Z,100103.15
2019-06-10T22:36:57.715Z,100100.81
2019-06-10T22:39:27.597Z,100098.01
2019-06-10T22:41:57.392Z,100095.92
2019-06-10T22:44:27.192Z,100101.36
2019-06-10T22:46:57.385Z,100102.75
2019-06-10T22:49:27.330Z,100103.04
2019-06-10T22:51:58.962Z,100113.28
2019-06-10T22:54:28.723Z,100125.25
2019-06-10T22:57:00.043Z,100123.86
2019-06-10T22:59:30.205Z,100104.14
2019-06-10T23:02:02.838Z,100099.69
2019-06-10T23:04:33.227Z,100106.72
2019-06-10T23:07:03.370Z,100105.18
2019-06-10T23:09:33.308Z,100107.73
2019-06-10T23:12:03.201Z,100105.23
2019-06-10T23:14:33.337Z,100111.28
2019-06-10T23:17:03.382Z,100107.93
2019-06-10T23:19:33.394Z,100116.34
2019-06-10T23:22:03.323Z,100127.39
2019-06-10T23:24:33.223Z,100130.45
2019-06-10T23:27:03.594Z,100134.59
2019-06-10T23:29:33.432Z,100130.87
2019-06-10T23:32:06.672Z,100135.16
2019-06-10T23:34:34.957Z,100131.56
2019-06-10T23:37:04.838Z,100127.20
2019-06-10T23:39:34.661Z,100130.50
2019-06-10T23:42:04.615Z,100124.05
2019-06-10T23:44:34.704Z,100123.38
2019-06-10T23:47:04.872Z,100126.84
2019-06-10T23:49:34.681Z,100129.04
2019-06-10T23:52:05.489Z,100140.22
2019-06-10T23:54:35.465Z,100143.06
2019-06-10T23:57:06.262Z,100151.19
2019-06-10T23:59:36.280Z,100164.23
